Disclaimer

Please do not use the information listed here in-flight or in-navigation, as they are not provided to us by the airports but are provided by volunteers, so they might be outdated.

Search


Regions


Airport information page

Radio informations:
Tower (TWR) - 119.8 MHz
Automatic Terminal Information Service (ATIS) - 119.325 MHz
Approach (APP) - 128.975 MHz

Airport informations:
Latitude: 50° 44' 04.00" N
Longitude: 003° 24' 50.00" W
Elevation: 102 feet - 31 meters
Operating hours: Remarks
Operating agency: Civil government, landing fees and diplomatic clearance may be required
Timezone: UTC 0(+1DT) - Last Sunday in March to last Sunday in October
Fuel: Jet A1, without icing nhibitor.

100/130 MIL Spec, low lead, aviation gasoline (BLUE)

Runway information:
08/26 - 6834 x 151 feet< - >2083 x 46 meters
13/31 - 4393 x 151 feet< - >1339 x 46 meters

Recent METARs:
EGTE 180920Z 06006KT 020V090 CAVOK 06/03 Q1024
EGTE 180950Z 05007KT CAVOK 06/03 Q1025
EGTE 181020Z 05008KT CAVOK 07/03 Q1025

Airport on the map: